Time;durP1;ratioP1;P1;durP2;ratioP2;P2;SDS_P1;SDS_P2;PMS_P1;PMS_P2;Temp;Humidity;BMP_temperature;BMP_pressure;BME280_temperature;BME280_humidity;BME280_pressure;Samples;Min_cycle;Max_cycle;Signal;HPM_P1;HPM_P2
2023/05/25 00:02:03;;;;;;;;;;;;;;;21.53;31.41;97790.31;5040666;28;937;-79
2023/05/25 00:04:29;;;;;;;;;;;;;;;21.51;31.68;97790.75;5022819;28;941;-79
2023/05/25 00:06:55;;;;;;;;;;;;;;;21.83;31.04;97783.34;5040026;28;1354;-79
2023/05/25 00:09:20;;;;;;;;;;;;;;;22.00;30.67;97786.84;5022129;28;1641;-78
2023/05/25 00:11:46;;;;;;;;;;;;;;;21.74;31.00;97775.50;5020476;28;991;-78
2023/05/25 00:14:11;;;;;;;;;;;;;;;21.77;30.90;97776.66;5019077;28;1883;-79
2023/05/25 00:16:39;;;;;;;;;;;;;;;21.93;30.49;97775.75;5003998;28;1218;-78
2023/05/25 00:19:05;;;;;;;;;;;;;;;21.88;30.54;97779.16;5002844;28;972;-79
2023/05/25 00:21:33;;;;;;;;;;;;;;;21.67;30.77;97778.56;5004047;28;1047;-79
2023/05/25 00:23:59;;;;;;;;;;;;;;;21.68;30.75;97782.97;5003365;28;944;-79
2023/05/25 00:26:24;;;;;;;;;;;;;;;21.64;30.92;97782.28;5004055;28;1017;-78
2023/05/25 00:28:50;;;;;;;;;;;;;;;21.68;30.73;97777.31;5018944;28;1261;-78
2023/05/25 00:31:16;;;;;;;;;;;;;;;21.55;31.02;97785.78;5004308;28;824;-79
2023/05/25 00:33:41;;;;;;;;;;;;;;;21.72;30.97;97780.84;5048987;28;1883;-79
2023/05/25 00:36:07;;;;;;;;;;;;;;;22.43;30.74;97769.25;5046931;28;1085;-79
2023/05/25 00:38:33;;;;;;;;;;;;;;;22.46;31.16;97773.25;5045380;28;1209;-78
2023/05/25 00:40:58;;;;;;;;;;;;;;;22.44;31.28;97775.75;5063911;28;1224;-79
2023/05/25 00:43:24;;;;;;;;;;;;;;;22.12;31.63;97788.91;5057518;28;1133;-79
2023/05/25 00:45:52;;;;;;;;;;;;;;;22.01;31.67;97779.94;5063045;28;1245;-78
2023/05/25 00:48:18;;;;;;;;;;;;;;;21.83;31.46;97778.47;5061121;28;1510;-79
2023/05/25 00:50:44;;;;;;;;;;;;;;;21.72;31.60;97778.00;5046502;28;949;-79
2023/05/25 00:53:10;;;;;;;;;;;;;;;21.78;31.48;97787.53;5044819;28;1989;-78
2023/05/25 00:55:38;;;;;;;;;;;;;;;21.74;31.50;97786.03;5045965;28;1574;-78
2023/05/25 00:58:05;;;;;;;;;;;;;;;21.82;31.47;97785.38;5062225;28;1016;-79
2023/05/25 01:00:31;;;;;;;;;;;;;;;21.59;31.89;97782.84;5046029;28;1174;-78
2023/05/25 01:02:58;;;;;;;;;;;;;;;21.54;32.21;97777.72;5046133;28;1069;-78
2023/05/25 01:05:27;;;;;;;;;;;;;;;21.49;31.87;97775.47;5045609;28;1057;-78
2023/05/25 01:07:54;;;;;;;;;;;;;;;21.64;32.04;97770.97;5062718;28;990;-79
2023/05/25 01:10:21;;;;;;;;;;;;;;;21.72;31.77;97761.00;5046091;28;1158;-79
2023/05/25 01:12:47;;;;;;;;;;;;;;;21.64;31.83;97770.16;5045951;28;1952;-78
2023/05/25 01:15:12;;;;;;;;;;;;;;;21.57;31.71;97774.00;5061954;28;1052;-79
2023/05/25 01:17:38;;;;;;;;;;;;;;;21.65;31.60;97772.53;5076944;28;984;-78
2023/05/25 01:20:06;;;;;;;;;;;;;;;21.76;31.34;97775.84;5096318;28;1199;-79
2023/05/25 01:22:32;;;;;;;;;;;;;;;21.78;31.55;97770.53;5062859;28;978;-78
2023/05/25 01:25:02;;;;;;;;;;;;;;;21.64;31.70;97779.44;5061811;28;975;-78
2023/05/25 01:27:31;;;;;;;;;;;;;;;21.66;31.61;97773.31;5067118;28;959;-79
2023/05/25 01:29:57;;;;;;;;;;;;;;;21.43;31.78;97766.72;5048750;28;1213;-79
2023/05/25 01:32:23;;;;;;;;;;;;;;;21.67;31.46;97769.28;5048773;28;1965;-79
2023/05/25 01:34:49;;;;;;;;;;;;;;;21.47;31.78;97769.47;5048187;28;1489;-78
2023/05/25 01:37:16;;;;;;;;;;;;;;;21.54;31.74;97767.19;5049642;28;1118;-79
2023/05/25 01:39:42;;;;;;;;;;;;;;;21.65;31.70;97766.09;5048817;28;906;-79
2023/05/25 01:42:07;;;;;;;;;;;;;;;21.54;31.79;97763.59;5065966;28;1040;-78
2023/05/25 01:44:33;;;;;;;;;;;;;;;21.67;31.55;97758.75;5065026;28;1059;-79
2023/05/25 01:47:20;;;;;;;;;;;;;;;21.81;31.10;97763.97;5065736;28;1483;-79
2023/05/25 01:49:49;;;;;;;;;;;;;;;21.60;31.49;97753.28;5065088;28;1066;-78
2023/05/25 01:52:17;;;;;;;;;;;;;;;21.68;31.40;97754.66;5049162;28;1982;-78
2023/05/25 01:54:44;;;;;;;;;;;;;;;21.69;31.46;97761.91;5063987;28;1168;-79
2023/05/25 01:57:11;;;;;;;;;;;;;;;21.80;31.19;97768.03;5061938;28;1130;-79
2023/05/25 01:59:37;;;;;;;;;;;;;;;21.74;31.30;97758.50;5044154;28;1376;-78
2023/05/25 02:02:03;;;;;;;;;;;;;;;21.93;30.89;97758.75;5046125;28;976;-78
2023/05/25 02:04:28;;;;;;;;;;;;;;;21.92;30.88;97757.97;5043679;28;995;-78
2023/05/25 02:06:54;;;;;;;;;;;;;;;21.68;31.54;97754.66;5062336;28;1055;-79
2023/05/25 02:09:20;;;;;;;;;;;;;;;21.53;31.98;97759.97;5044873;28;1088;-79
2023/05/25 02:11:45;;;;;;;;;;;;;;;21.58;31.74;97769.94;5062396;28;1167;-78
2023/05/25 02:14:11;;;;;;;;;;;;;;;21.87;31.08;97769.06;5044661;28;1993;-79
2023/05/25 02:16:36;;;;;;;;;;;;;;;21.93;30.79;97778.59;5079726;28;1170;-78
2023/05/25 02:19:02;;;;;;;;;;;;;;;21.88;30.96;97773.47;5021334;28;1110;-78
2023/05/25 02:21:28;;;;;;;;;;;;;;;21.35;32.00;97775.88;5006391;28;1005;-78
2023/05/25 02:23:53;;;;;;;;;;;;;;;21.62;31.58;97779.13;5004828;28;1244;-78
2023/05/25 02:26:19;;;;;;;;;;;;;;;21.63;31.44;97780.69;5022786;28;949;-78
2023/05/25 02:28:45;;;;;;;;;;;;;;;21.50;31.67;97782.69;5022649;28;1060;-79
2023/05/25 02:31:10;;;;;;;;;;;;;;;21.67;31.36;97781.41;5046232;28;1151;-78
2023/05/25 02:33:35;;;;;;;;;;;;;;;21.55;31.57;97787.81;5044316;28;1886;-78
2023/05/25 02:36:01;;;;;;;;;;;;;;;21.64;31.32;97793.59;5062391;28;1053;-78
2023/05/25 02:38:27;;;;;;;;;;;;;;;21.74;31.05;97784.00;5039990;28;1001;-79
2023/05/25 02:40:52;;;;;;;;;;;;;;;21.75;31.33;97788.41;5009713;28;1127;-78
2023/05/25 02:43:19;;;;;;;;;;;;;;;21.71;31.06;97793.41;5007415;28;1179;-79
2023/05/25 02:45:45;;;;;;;;;;;;;;;21.81;31.25;97792.28;5042229;28;966;-79
2023/05/25 02:48:11;;;;;;;;;;;;;;;21.53;31.61;97784.66;5040975;28;1122;-78
2023/05/25 02:50:37;;;;;;;;;;;;;;;22.34;31.06;97795.50;4989206;28;1219;-79
2023/05/25 02:53:06;;;;;;;;;;;;;;;22.68;31.31;97793.94;4988435;28;1890;-79
2023/05/25 02:55:32;;;;;;;;;;;;;;;22.77;31.95;97793.25;5010297;28;1262;-78
2023/05/25 02:57:59;;;;;;;;;;;;;;;22.30;32.89;97789.13;5027909;28;1170;-78
2023/05/25 03:00:54;;;;;;;;;;;;;;;21.89;33.20;97804.19;4990796;28;1021;-78
2023/05/25 03:03:20;;;;;;;;;;;;;;;21.62;33.12;97798.16;4969098;28;975;-79
2023/05/25 03:05:46;;;;;;;;;;;;;;;21.73;32.79;97807.91;5002892;28;990;-78
2023/05/25 03:08:11;;;;;;;;;;;;;;;21.73;32.80;97805.06;4984815;28;1026;-78
2023/05/25 03:10:37;;;;;;;;;;;;;;;21.81;32.43;97806.47;4953957;28;1313;-78
2023/05/25 03:13:06;;;;;;;;;;;;;;;21.93;32.24;97809.75;4985189;28;1910;-78
2023/05/25 03:15:33;;;;;;;;;;;;;;;21.79;32.25;97811.75;4953739;28;1246;-79
2023/05/25 03:18:00;;;;;;;;;;;;;;;21.77;32.47;97819.91;4985136;28;1341;-78
2023/05/25 03:20:29;;;;;;;;;;;;;;;21.75;32.41;97811.06;4987647;28;1129;-79
2023/05/25 03:22:55;;;;;;;;;;;;;;;21.75;32.06;97825.22;5007729;28;1247;-79
2023/05/25 03:25:20;;;;;;;;;;;;;;;21.92;32.19;97811.00;5023532;28;1053;-78
2023/05/25 03:27:46;;;;;;;;;;;;;;;21.85;31.76;97820.50;5025019;28;1254;-78
2023/05/25 03:30:12;;;;;;;;;;;;;;;21.63;32.51;97822.38;5007861;28;1225;-79
2023/05/25 03:32:37;;;;;;;;;;;;;;;21.64;32.23;97810.59;5007829;28;1906;-78
2023/05/25 03:35:06;;;;;;;;;;;;;;;21.86;31.56;97816.41;5006433;28;1382;-78
2023/05/25 03:37:31;;;;;;;;;;;;;;;21.66;32.15;97819.44;5064960;28;1581;-78
2023/05/25 03:39:57;;;;;;;;;;;;;;;21.66;32.25;97815.81;5062772;28;1463;-79
2023/05/25 03:42:23;;;;;;;;;;;;;;;21.79;31.95;97817.41;5064399;28;1225;-79
2023/05/25 03:44:48;;;;;;;;;;;;;;;21.70;31.67;97822.94;5062966;28;1072;-79
2023/05/25 03:47:14;;;;;;;;;;;;;;;21.72;31.66;97817.66;5048006;28;1142;-79
2023/05/25 03:49:40;;;;;;;;;;;;;;;21.85;31.55;97821.28;5079529;28;924;-79
2023/05/25 03:52:06;;;;;;;;;;;;;;;21.56;31.92;97817.72;5029319;28;2289;-78
2023/05/25 03:54:31;;;;;;;;;;;;;;;21.66;31.73;97818.63;5042679;28;1390;-79
2023/05/25 03:57:02;;;;;;;;;;;;;;;21.69;31.53;97829.06;5043970;28;1358;-79
2023/05/25 03:59:29;;;;;;;;;;;;;;;22.59;31.55;97827.91;5042705;28;1117;-78
2023/05/25 04:01:55;;;;;;;;;;;;;;;22.61;32.24;97825.38;5052531;28;1477;-78
2023/05/25 04:04:20;;;;;;;;;;;;;;;22.73;32.52;97821.72;5059133;28;1480;-78
2023/05/25 04:06:47;;;;;;;;;;;;;;;22.43;32.72;97830.84;5058791;28;1337;-79
2023/05/25 04:09:13;;;;;;;;;;;;;;;22.35;32.22;97831.09;5058883;28;1422;-78
2023/05/25 04:11:39;;;;;;;;;;;;;;;22.07;32.60;97837.63;5093839;28;1543;-78
2023/05/25 04:14:04;;;;;;;;;;;;;;;22.14;31.98;97837.44;5063376;28;1961;-79
2023/05/25 04:16:34;;;;;;;;;;;;;;;22.22;31.80;97838.78;5081418;28;1174;-79
2023/05/25 04:19:01;;;;;;;;;;;;;;;21.77;32.52;97836.13;5079926;28;1359;-79
2023/05/25 04:21:26;;;;;;;;;;;;;;;22.05;32.14;97843.75;5081642;28;1141;-78
2023/05/25 04:23:52;;;;;;;;;;;;;;;22.14;32.09;97837.44;5062672;28;1406;-77
2023/05/25 04:26:18;;;;;;;;;;;;;;;21.87;32.50;97828.56;5048974;28;1480;-78
2023/05/25 04:28:46;;;;;;;;;;;;;;;21.89;32.33;97837.38;5063015;28;1450;-78
2023/05/25 04:31:38;;;;;;;;;;;;;;;21.90;32.71;97839.75;5068049;28;1712;-79
2023/05/25 04:34:13;;;;;;;;;;;;;;;22.14;32.02;97845.94;5079995;28;1967;-79
2023/05/25 04:36:57;;;;;;;;;;;;;;;21.65;32.83;97840.50;5052989;28;1130;-79
2023/05/25 04:39:23;;;;;;;;;;;;;;;21.68;32.84;97845.28;5079893;28;1157;-78
2023/05/25 04:41:52;;;;;;;;;;;;;;;21.76;32.67;97845.84;5080813;28;1225;-79
2023/05/25 04:44:18;;;;;;;;;;;;;;;22.01;32.24;97847.94;5079092;28;1624;-78
2023/05/25 04:46:47;;;;;;;;;;;;;;;22.03;32.00;97848.28;5080705;28;1141;-79
2023/05/25 04:49:20;;;;;;;;;;;;;;;22.09;31.77;97852.13;5064693;28;1351;-79
2023/05/25 04:51:46;;;;;;;;;;;;;;;22.02;32.09;97858.00;5082395;28;1033;-79
2023/05/25 04:54:12;;;;;;;;;;;;;;;22.01;32.07;97862.09;5063059;28;1975;-79
2023/05/25 04:56:38;;;;;;;;;;;;;;;22.06;32.05;97853.03;5046664;28;1219;-79
2023/05/25 04:59:05;;;;;;;;;;;;;;;21.91;32.13;97863.22;5041454;28;1531;-78
2023/05/25 05:01:33;;;;;;;;;;;;;;;21.62;32.81;97863.28;5062431;28;1238;-78
2023/05/25 05:04:01;;;;;;;;;;;;;;;21.65;32.71;97868.81;5047982;28;1595;-78
2023/05/25 05:06:26;;;;;;;;;;;;;;;21.85;32.15;97877.13;5062454;28;1528;-79
2023/05/25 05:08:52;;;;;;;;;;;;;;;22.08;31.75;97870.41;5045905;28;1445;-78
2023/05/25 05:11:17;;;;;;;;;;;;;;;22.02;32.08;97875.00;5066675;28;1705;-79
2023/05/25 05:13:43;;;;;;;;;;;;;;;21.78;32.57;97875.31;5031949;28;1914;-78
2023/05/25 05:16:09;;;;;;;;;;;;;;;21.93;31.98;97872.06;5033747;28;1100;-79
2023/05/25 05:18:34;;;;;;;;;;;;;;;22.06;31.70;97879.31;5081734;28;968;-79
2023/05/25 05:21:00;;;;;;;;;;;;;;;21.92;32.27;97876.16;5067326;28;1165;-78
2023/05/25 05:23:26;;;;;;;;;;;;;;;22.08;31.79;97873.22;5074387;28;1564;-79
2023/05/25 05:25:51;;;;;;;;;;;;;;;21.79;32.42;97868.41;5028586;28;1347;-78
2023/05/25 05:28:18;;;;;;;;;;;;;;;21.76;32.33;97874.97;5061287;28;1500;-78
2023/05/25 05:30:46;;;;;;;;;;;;;;;22.25;31.44;97883.25;5084574;28;1252;-78
2023/05/25 05:33:12;;;;;;;;;;;;;;;22.12;31.56;97884.47;5044951;28;1894;-79
2023/05/25 05:35:43;;;;;;;;;;;;;;;21.72;32.27;97885.63;5045265;28;1564;-78
2023/05/25 05:38:13;;;;;;;;;;;;;;;21.58;32.79;97886.00;5029045;28;1561;-78
2023/05/25 05:40:39;;;;;;;;;;;;;;;21.90;32.17;97881.44;5029468;28;1578;-79
2023/05/25 05:43:05;;;;;;;;;;;;;;;22.23;31.18;97891.41;5045246;28;1207;-79
2023/05/25 05:45:31;;;;;;;;;;;;;;;21.98;31.82;97891.34;5046000;28;1245;-78
2023/05/25 05:47:56;;;;;;;;;;;;;;;21.92;31.79;97901.66;5045031;28;1236;-79
2023/05/25 05:50:22;;;;;;;;;;;;;;;21.72;32.40;97896.94;5062257;28;1191;-78
2023/05/25 05:52:47;;;;;;;;;;;;;;;21.94;31.82;97901.97;5028699;28;1942;-79
2023/05/25 05:55:13;;;;;;;;;;;;;;;21.98;31.56;97897.00;5061649;28;907;-79
2023/05/25 05:57:40;;;;;;;;;;;;;;;21.83;31.89;97903.09;5005780;28;1394;-78
2023/05/25 06:00:06;;;;;;;;;;;;;;;22.05;31.40;97908.13;5021349;28;945;-78
2023/05/25 06:02:40;;;;;;;;;;;;;;;21.98;31.26;97908.34;5021721;28;1020;-78
2023/05/25 06:05:06;;;;;;;;;;;;;;;21.87;31.46;97905.03;5021425;28;1309;-78
2023/05/25 06:07:34;;;;;;;;;;;;;;;21.67;31.95;97905.19;5007726;28;1181;-78
2023/05/25 06:10:00;;;;;;;;;;;;;;;21.54;32.15;97907.97;4981094;28;1114;-79
2023/05/25 06:12:25;;;;;;;;;;;;;;;22.02;31.19;97909.81;4982814;28;2026;-79
2023/05/25 06:14:51;;;;;;;;;;;;;;;21.97;31.30;97898.25;5014400;28;1183;-78
2023/05/25 06:17:17;;;;;;;;;;;;;;;21.69;31.95;97908.34;5002499;28;1311;-78
2023/05/25 06:19:43;;;;;;;;;;;;;;;21.92;31.62;97907.31;4984441;28;1324;-78
2023/05/25 06:22:09;;;;;;;;;;;;;;;21.70;31.93;97910.72;4993373;28;1571;-78
2023/05/25 06:24:35;;;;;;;;;;;;;;;21.88;31.48;97910.25;5004556;28;882;-79
2023/05/25 06:27:02;;;;;;;;;;;;;;;21.71;31.93;97912.34;5022181;28;1206;-78
2023/05/25 06:29:27;;;;;;;;;;;;;;;21.87;31.58;97907.88;5037311;28;985;-78
2023/05/25 06:31:53;;;;;;;;;;;;;;;21.72;31.68;97908.28;5025722;28;1244;-79
2023/05/25 06:34:18;;;;;;;;;;;;;;;21.89;31.20;97911.03;5040812;28;1917;-79
2023/05/25 06:36:46;;;;;;;;;;;;;;;21.77;31.24;97910.56;5072820;28;1575;-78
2023/05/25 06:39:12;;;;;;;;;;;;;;;21.73;31.39;97909.84;5063579;28;1228;-78
2023/05/25 06:41:37;;;;;;;;;;;;;;;21.66;31.50;97920.56;5048694;28;1115;-79
2023/05/25 06:44:03;;;;;;;;;;;;;;;21.49;31.75;97912.13;5047415;28;1230;-78
2023/05/25 06:46:31;;;;;;;;;;;;;;;21.46;31.76;97917.91;5048744;28;1263;-78
2023/05/25 06:49:00;;;;;;;;;;;;;;;21.69;31.15;97923.31;5046866;28;1320;-78
2023/05/25 06:51:26;;;;;;;;;;;;;;;21.71;31.33;97926.50;5024632;28;1426;-78
2023/05/25 06:53:52;;;;;;;;;;;;;;;21.75;30.85;97920.72;5059307;28;1910;-79
2023/05/25 06:56:18;;;;;;;;;;;;;;;21.91;30.84;97925.53;5047930;28;1554;-78
2023/05/25 06:58:44;;;;;;;;;;;;;;;21.70;30.83;97916.41;5068242;28;1564;-78
2023/05/25 07:01:09;;;;;;;;;;;;;;;21.66;31.05;97920.56;5061513;28;1129;-78
2023/05/25 07:03:35;;;;;;;;;;;;;;;21.63;31.03;97916.63;5042519;28;993;-78
2023/05/25 07:06:00;;;;;;;;;;;;;;;21.62;31.07;97919.91;5024544;28;1357;-79
2023/05/25 07:08:26;;;;;;;;;;;;;;;21.47;31.29;97908.16;5038966;28;1110;-78
2023/05/25 07:10:51;;;;;;;;;;;;;;;21.60;31.22;97920.31;4977026;28;1559;-78
2023/05/25 07:13:17;;;;;;;;;;;;;;;21.50;31.18;97918.59;4999085;28;1954;-78
2023/05/25 07:15:42;;;;;;;;;;;;;;;21.64;30.89;97918.19;5000828;28;1008;-79
2023/05/25 07:18:11;;;;;;;;;;;;;;;21.76;30.56;97910.97;4999528;28;990;-78
2023/05/25 07:20:38;;;;;;;;;;;;;;;21.66;31.01;97918.56;5000407;28;920;-79
2023/05/25 07:23:03;;;;;;;;;;;;;;;21.69;30.70;97917.66;4999121;28;923;-78
2023/05/25 07:25:28;;;;;;;;;;;;;;;21.66;30.69;97915.72;5030841;28;1466;-78
2023/05/25 07:27:54;;;;;;;;;;;;;;;21.65;30.83;97919.78;5023164;28;1031;-79
2023/05/25 07:30:20;;;;;;;;;;;;;;;21.88;30.66;97920.78;5023225;28;959;-78
2023/05/25 07:32:45;;;;;;;;;;;;;;;22.42;30.85;97931.31;5039876;28;1910;-79
2023/05/25 07:35:11;;;;;;;;;;;;;;;22.60;30.97;97928.72;5006469;28;1058;-78
2023/05/25 07:37:36;;;;;;;;;;;;;;;22.58;31.58;97929.16;5006855;28;884;-78
2023/05/25 07:40:02;;;;;;;;;;;;;;;22.20;32.09;97920.66;5022065;28;1439;-79
2023/05/25 07:42:32;;;;;;;;;;;;;;;21.84;32.49;97927.31;5025961;28;988;-79
2023/05/25 07:44:58;;;;;;;;;;;;;;;21.68;32.50;97918.91;5061251;28;945;-78
2023/05/25 07:47:24;;;;;;;;;;;;;;;21.88;31.66;97921.56;5061278;28;1253;-79
2023/05/25 07:49:50;;;;;;;;;;;;;;;21.69;32.04;97920.47;5042554;28;1164;-78
2023/05/25 07:52:15;;;;;;;;;;;;;;;21.45;31.92;97921.97;5077677;28;1951;-78
2023/05/25 07:54:41;;;;;;;;;;;;;;;21.62;31.68;97917.06;5071758;28;1489;-78
2023/05/25 07:57:06;;;;;;;;;;;;;;;21.69;31.26;97926.16;5064578;28;967;-78
2023/05/25 07:59:32;;;;;;;;;;;;;;;21.67;31.02;97925.00;5080802;28;938;-78
2023/05/25 08:01:57;;;;;;;;;;;;;;;21.97;30.53;97923.75;5080450;28;1255;-78
2023/05/25 08:04:23;;;;;;;;;;;;;;;21.42;31.73;97918.00;5079251;28;1119;-78
2023/05/25 08:06:48;;;;;;;;;;;;;;;21.64;31.00;97923.84;5064162;28;1151;-79
2023/05/25 08:09:14;;;;;;;;;;;;;;;21.60;30.84;97928.81;5062736;28;1538;-78
2023/05/25 08:11:40;;;;;;;;;;;;;;;21.61;30.74;97927.59;5081785;28;940;-78
2023/05/25 08:14:05;;;;;;;;;;;;;;;21.74;30.42;97933.31;5079536;28;1971;-78
2023/05/25 08:16:31;;;;;;;;;;;;;;;21.55;30.86;97933.00;5081504;28;1009;-78
2023/05/25 08:18:56;;;;;;;;;;;;;;;21.63;30.41;97927.94;5095834;28;1001;-78
2023/05/25 08:21:22;;;;;;;;;;;;;;;21.47;30.49;97930.81;5080937;28;1136;-78
2023/05/25 08:23:49;;;;;;;;;;;;;;;21.69;30.31;97931.00;5089179;28;1281;-78
2023/05/25 08:26:16;;;;;;;;;;;;;;;21.79;29.91;97930.72;5063046;28;1193;-78
2023/05/25 08:28:41;;;;;;;;;;;;;;;21.47;30.27;97925.16;5061112;28;1000;-78
2023/05/25 08:31:07;;;;;;;;;;;;;;;21.40;30.67;97914.00;5029912;28;1198;-78
2023/05/25 08:33:32;;;;;;;;;;;;;;;21.70;30.03;97915.59;5044464;28;1984;-78
2023/05/25 08:35:58;;;;;;;;;;;;;;;21.45;30.46;97921.97;5084044;28;972;-78
2023/05/25 08:38:24;;;;;;;;;;;;;;;21.56;30.31;97922.47;4999912;28;1588;-78
2023/05/25 08:41:01;;;;;;;;;;;;;;;21.44;30.42;97931.69;4991644;28;1096;-79
2023/05/25 08:43:27;;;;;;;;;;;;;;;21.53;30.25;97935.47;5005335;28;1107;-78
2023/05/25 08:45:53;;;;;;;;;;;;;;;21.51;30.19;97921.00;5023703;28;1356;-78
2023/05/25 08:48:18;;;;;;;;;;;;;;;22.15;30.06;97929.69;5021896;28;915;-78
2023/05/25 08:50:44;;;;;;;;;;;;;;;22.49;30.86;97937.59;5022819;28;1397;-79
2023/05/25 08:53:10;;;;;;;;;;;;;;;22.74;30.70;97939.63;4989489;28;1891;-78
2023/05/25 08:55:36;;;;;;;;;;;;;;;22.54;30.98;97939.06;5007074;28;972;-79
2023/05/25 08:58:05;;;;;;;;;;;;;;;21.85;31.75;97945.91;5054895;28;1363;-79
2023/05/25 09:00:32;;;;;;;;;;;;;;;21.90;31.42;97952.28;5046496;28;1219;-78
2023/05/25 09:03:06;;;;;;;;;;;;;;;21.89;31.14;97950.69;5062153;28;997;-78
2023/05/25 09:05:35;;;;;;;;;;;;;;;21.61;31.77;97950.25;5046582;28;1111;-78
2023/05/25 09:08:04;;;;;;;;;;;;;;;21.81;30.78;97939.56;5044872;28;1251;-79
2023/05/25 09:10:29;;;;;;;;;;;;;;;21.66;31.33;97944.03;5065846;28;949;-79
2023/05/25 09:12:55;;;;;;;;;;;;;;;21.52;31.15;97942.38;5075191;28;1914;-78
2023/05/25 09:15:20;;;;;;;;;;;;;;;21.74;30.89;97928.44;5062931;28;992;-78
2023/05/25 09:17:46;;;;;;;;;;;;;;;21.64;30.67;97929.53;5063365;28;1235;-78
2023/05/25 09:20:14;;;;;;;;;;;;;;;21.71;30.57;97929.34;5063503;28;863;-78
2023/05/25 09:22:40;;;;;;;;;;;;;;;21.58;30.68;97925.66;5064004;28;859;-78
2023/05/25 09:25:09;;;;;;;;;;;;;;;21.46;31.01;97932.06;5062461;28;1066;-78
2023/05/25 09:27:36;;;;;;;;;;;;;;;21.59;30.85;97930.06;5068667;28;1387;-77
2023/05/25 09:30:01;;;;;;;;;;;;;;;21.75;30.28;97930.00;5081077;28;1073;-79
2023/05/25 09:32:27;;;;;;;;;;;;;;;21.51;30.46;97937.97;5082567;28;1913;-79
2023/05/25 09:34:54;;;;;;;;;;;;;;;21.62;30.40;97931.22;5021790;28;1234;-78
2023/05/25 09:37:20;;;;;;;;;;;;;;;22.27;30.41;97936.63;5022136;28;1440;-78
2023/05/25 09:39:46;;;;;;;;;;;;;;;22.30;30.81;97942.19;5005191;28;1357;-78
2023/05/25 09:42:11;;;;;;;;;;;;;;;22.58;30.52;97939.72;5022519;28;949;-79
2023/05/25 09:44:37;;;;;;;;;;;;;;;22.28;30.73;97938.25;5021333;28;1000;-78
2023/05/25 09:47:03;;;;;;;;;;;;;;;21.72;31.38;97930.94;5021360;28;1014;-78
2023/05/25 09:49:29;;;;;;;;;;;;;;;21.95;30.76;97937.56;5004248;28;967;-78
2023/05/25 09:51:55;;;;;;;;;;;;;;;21.79;30.79;97927.09;5022387;28;1054;-78
2023/05/25 09:54:21;;;;;;;;;;;;;;;21.50;31.19;97932.75;5020178;28;1898;-78
2023/05/25 09:56:47;;;;;;;;;;;;;;;21.49;30.92;97928.31;5006484;28;932;-78
2023/05/25 09:59:12;;;;;;;;;;;;;;;21.56;30.63;97916.81;5020507;28;972;-79
2023/05/25 10:01:38;;;;;;;;;;;;;;;21.56;30.96;97933.81;5008169;28;1528;-78
2023/05/25 10:04:04;;;;;;;;;;;;;;;21.73;30.27;97935.34;5024482;28;942;-79
2023/05/25 10:06:30;;;;;;;;;;;;;;;21.61;30.51;97940.97;5052580;28;1161;-78
2023/05/25 10:08:56;;;;;;;;;;;;;;;21.67;30.30;97954.13;5062349;28;1390;-79
2023/05/25 10:11:22;;;;;;;;;;;;;;;21.47;30.86;97959.13;5064091;28;1545;-79
2023/05/25 10:13:48;;;;;;;;;;;;;;;21.46;30.86;97958.34;5064665;28;1887;-78
2023/05/25 10:16:16;;;;;;;;;;;;;;;21.94;30.44;97955.81;5080155;28;1795;-78
2023/05/25 10:18:50;;;;;;;;;;;;;;;22.28;30.44;97946.75;5064656;28;1507;-79
2023/05/25 10:21:17;;;;;;;;;;;;;;;22.23;30.36;97948.09;5066929;28;1128;-79
2023/05/25 10:23:47;;;;;;;;;;;;;;;22.06;30.79;97949.38;5078448;28;1675;-77
2023/05/25 10:26:12;;;;;;;;;;;;;;;22.04;30.62;97946.19;5064650;28;1750;-78
2023/05/25 10:28:38;;;;;;;;;;;;;;;21.95;30.51;97954.56;5080012;28;1839;-78
2023/05/25 10:31:04;;;;;;;;;;;;;;;22.00;30.40;97962.50;5066657;28;2005;-78
2023/05/25 10:33:29;;;;;;;;;;;;;;;21.55;31.00;97966.16;5080858;28;1918;-78
2023/05/25 10:35:55;;;;;;;;;;;;;;;21.64;30.97;97963.50;5062435;28;1541;-78
2023/05/25 10:38:21;;;;;;;;;;;;;;;21.54;31.08;97961.75;5078357;28;932;-78
2023/05/25 10:40:47;;;;;;;;;;;;;;;21.65;31.06;97958.63;5064026;28;908;-78
2023/05/25 10:43:13;;;;;;;;;;;;;;;21.64;30.92;97952.19;5079432;28;1010;-79
2023/05/25 10:45:40;;;;;;;;;;;;;;;21.31;31.94;97948.63;5081590;28;967;-78
2023/05/25 10:48:06;;;;;;;;;;;;;;;21.79;31.76;97942.03;5069105;28;1652;-79
2023/05/25 10:50:33;;;;;;;;;;;;;;;22.52;31.01;97941.53;5080740;28;977;-80
2023/05/25 10:53:00;;;;;;;;;;;;;;;22.50;30.71;97938.38;5003403;28;1961;-79
2023/05/25 10:55:30;;;;;;;;;;;;;;;22.05;31.14;97936.44;4994983;28;1175;-80
2023/05/25 10:58:12;;;;;;;;;;;;;;;21.61;32.00;97930.44;4986077;28;971;-78
2023/05/25 11:00:38;;;;;;;;;;;;;;;21.59;31.67;97927.22;4985937;28;1131;-79
2023/05/25 11:03:03;;;;;;;;;;;;;;;21.56;31.50;97933.81;4984607;28;1225;-79
2023/05/25 11:05:29;;;;;;;;;;;;;;;21.52;31.52;97930.28;4985904;28;1123;-79
2023/05/25 11:07:55;;;;;;;;;;;;;;;21.52;31.35;97933.91;4984132;28;1028;-78
2023/05/25 11:10:39;;;;;;;;;;;;;;;21.53;31.25;97929.03;4985166;28;1199;-78
2023/05/25 11:13:23;;;;;;;;;;;;;;;21.63;31.02;97930.78;4999024;28;1955;-78
2023/05/25 11:16:08;;;;;;;;;;;;;;;21.50;31.20;97919.41;4981705;28;973;-79
2023/05/25 11:18:36;;;;;;;;;;;;;;;21.69;30.79;97923.31;4991316;28;1015;-79
2023/05/25 11:21:14;;;;;;;;;;;;;;;21.35;31.59;97926.69;5020969;28;933;-78
2023/05/25 11:24:01;;;;;;;;;;;;;;;21.71;31.48;97918.00;5023302;28;1277;-78
2023/05/25 11:26:31;;;;;;;;;;;;;;;22.33;31.01;97923.50;5065204;28;1013;-79
2023/05/25 11:29:00;;;;;;;;;;;;;;;22.51;30.87;97922.94;5080865;28;1259;-79
2023/05/25 11:31:28;;;;;;;;;;;;;;;22.03;31.33;97922.75;5065411;28;971;-78
2023/05/25 11:33:57;;;;;;;;;;;;;;;21.75;31.35;97910.19;5063723;28;1894;-79
2023/05/25 11:36:23;;;;;;;;;;;;;;;21.63;31.76;97905.28;5081317;28;908;-78
2023/05/25 11:38:51;;;;;;;;;;;;;;;21.36;32.19;97902.00;5062863;28;988;-78
2023/05/25 11:41:17;;;;;;;;;;;;;;;21.36;31.93;97893.53;5064601;28;893;-79
2023/05/25 11:43:46;;;;;;;;;;;;;;;21.64;31.14;97889.88;5080213;28;837;-78
2023/05/25 11:46:13;;;;;;;;;;;;;;;21.45;31.51;97885.97;5081630;28;950;-78
2023/05/25 11:48:43;;;;;;;;;;;;;;;21.28;32.06;97881.56;5063257;28;1104;-78
2023/05/25 11:51:08;;;;;;;;;;;;;;;21.64;31.19;97875.72;5044066;28;1188;-78
2023/05/25 11:53:34;;;;;;;;;;;;;;;21.81;30.67;97865.13;5041247;28;1870;-78
2023/05/25 11:56:00;;;;;;;;;;;;;;;21.52;31.11;97876.47;5061237;28;912;-78
2023/05/25 11:58:25;;;;;;;;;;;;;;;21.39;31.60;97872.81;5025451;28;1076;-78
2023/05/25 12:00:51;;;;;;;;;;;;;;;21.68;30.80;97862.25;5058326;28;969;-79
2023/05/25 12:03:30;;;;;;;;;;;;;;;21.27;31.45;97858.13;5025752;28;1134;-78
2023/05/25 12:05:56;;;;;;;;;;;;;;;21.58;31.10;97854.88;5028098;28;910;-78
2023/05/25 12:08:34;;;;;;;;;;;;;;;22.07;30.82;97846.94;5041740;28;972;-78
2023/05/25 12:11:00;;;;;;;;;;;;;;;22.35;30.91;97842.44;5043872;28;994;-78
2023/05/25 12:13:25;;;;;;;;;;;;;;;22.24;30.98;97841.97;5025256;28;1894;-78
2023/05/25 12:15:53;;;;;;;;;;;;;;;21.81;31.74;97840.44;5004476;28;1018;-78
2023/05/25 12:18:19;;;;;;;;;;;;;;;22.09;30.95;97840.81;5002658;28;1023;-79
2023/05/25 12:20:45;;;;;;;;;;;;;;;21.87;31.30;97839.88;4987940;28;1033;-79
2023/05/25 12:23:10;;;;;;;;;;;;;;;22.04;30.49;97828.00;5023299;28;1406;-78
2023/05/25 12:25:36;;;;;;;;;;;;;;;21.89;30.62;97848.72;5060168;28;1352;-79
2023/05/25 12:28:11;;;;;;;;;;;;;;;21.58;31.18;97860.53;5062156;28;1085;-79
2023/05/25 12:30:37;;;;;;;;;;;;;;;21.84;30.60;97859.34;5063223;28;862;-79
2023/05/25 12:33:02;;;;;;;;;;;;;;;21.79;30.58;97879.72;5062807;28;1898;-79
2023/05/25 12:35:28;;;;;;;;;;;;;;;21.68;30.70;97889.78;5062450;28;1130;-78
2023/05/25 12:38:12;;;;;;;;;;;;;;;21.61;30.70;97904.94;5030643;28;914;-79
2023/05/25 12:40:38;;;;;;;;;;;;;;;21.59;30.70;97910.25;5043644;28;1024;-79
2023/05/25 12:43:03;;;;;;;;;;;;;;;21.31;31.33;97923.94;5042894;28;933;-80
2023/05/25 12:45:29;;;;;;;;;;;;;;;21.44;31.29;97937.34;5043260;28;1118;-78
2023/05/25 12:47:55;;;;;;;;;;;;;;;21.82;31.41;97938.31;5025879;28;942;-79
2023/05/25 12:50:20;;;;;;;;;;;;;;;22.10;31.49;97944.41;5059623;28;1007;-79
2023/05/25 12:52:46;;;;;;;;;;;;;;;22.29;31.25;97946.28;5040092;28;1902;-79
2023/05/25 12:55:21;;;;;;;;;;;;;;;21.96;31.55;97944.81;5076997;28;943;-79
2023/05/25 12:57:51;;;;;;;;;;;;;;;21.64;32.11;97957.84;5081451;28;857;-78
2023/05/25 13:00:17;;;;;;;;;;;;;;;21.51;32.36;97943.63;5063459;28;993;-78